Time;durP1;ratioP1;P1;durP2;ratioP2;P2;SDS_P1;SDS_P2;PMS_P1;PMS_P2;Temp;Humidity;BMP_temperature;BMP_pressure;BME280_temperature;BME280_humidity;BME280_pressure;Samples;Min_cycle;Max_cycle;Signal;HPM_P1;HPM_P2
2022/01/30 00:00:14;;;;;;;3.77;1.70;;;;;;;7.49;100.00;98922.75;5071388;28;20090;-61
2022/01/30 00:02:39;;;;;;;3.83;1.80;;;;;;;7.56;100.00;98916.53;5071514;28;20086;-60
2022/01/30 00:05:06;;;;;;;3.10;1.80;;;;;;;7.56;100.00;98903.22;5071198;28;20549;-60
2022/01/30 00:07:32;;;;;;;4.20;1.83;;;;;;;7.62;100.00;98920.28;5071621;28;20429;-61
2022/01/30 00:09:58;;;;;;;3.43;1.93;;;;;;;7.63;100.00;98927.25;5071321;28;20315;-61
2022/01/30 00:12:35;;;;;;;3.93;1.87;;;;;;;7.61;100.00;98922.09;5071396;28;20030;-61
2022/01/30 00:15:00;;;;;;;4.13;1.80;;;;;;;7.65;100.00;98927.88;5071139;28;20048;-61
2022/01/30 00:17:34;;;;;;;3.93;2.00;;;;;;;7.61;100.00;98910.66;5071146;28;20390;-61
2022/01/30 00:20:04;;;;;;;4.37;1.87;;;;;;;7.68;100.00;98900.09;5071496;28;20526;-61
2022/01/30 00:25:13;;;;;;;3.70;2.03;;;;;;;7.67;100.00;98909.91;5071192;28;20340;-61
2022/01/30 00:28:01;;;;;;;3.58;1.90;;;;;;;7.55;100.00;98895.44;5071101;28;20029;-61
2022/01/30 00:30:33;;;;;;;4.17;1.97;;;;;;;7.54;100.00;98885.78;5070979;28;20033;-61
2022/01/30 00:32:58;;;;;;;3.47;1.97;;;;;;;7.59;100.00;98897.56;5070941;28;20289;-60
2022/01/30 00:35:24;;;;;;;3.70;1.70;;;;;;;7.53;100.00;98863.69;5071090;28;20308;-61
2022/01/30 00:37:49;;;;;;;3.37;1.90;;;;;;;7.56;100.00;98895.25;5071026;28;20035;-61
2022/01/30 00:40:15;;;;;;;3.57;1.90;;;;;;;7.59;100.00;98867.47;5070897;28;20389;-60
2022/01/30 00:42:40;;;;;;;3.73;2.17;;;;;;;7.59;100.00;98870.13;5070775;28;20525;-61
2022/01/30 00:45:07;;;;;;;4.43;2.13;;;;;;;7.60;100.00;98869.94;5070931;28;20100;-61
2022/01/30 00:47:32;;;;;;;4.20;2.10;;;;;;;7.57;100.00;98866.81;5071345;28;20048;-61
2022/01/30 00:49:58;;;;;;;4.57;1.80;;;;;;;7.59;100.00;98870.97;5071027;28;20792;-61
2022/01/30 00:52:23;;;;;;;3.37;1.80;;;;;;;7.51;100.00;98860.41;5074140;28;20036;-61
2022/01/30 00:54:49;;;;;;;3.50;1.90;;;;;;;7.51;100.00;98872.88;5074889;28;20032;-60
2022/01/30 00:57:14;;;;;;;3.60;1.90;;;;;;;7.54;100.00;98857.38;5074866;28;20521;-60
2022/01/30 00:59:40;;;;;;;3.70;1.80;;;;;;;7.53;100.00;98861.03;5074799;28;20031;-60
2022/01/30 01:02:05;;;;;;;3.47;2.00;;;;;;;7.47;100.00;98866.28;5074799;28;20386;-61
2022/01/30 01:04:31;;;;;;;3.43;2.10;;;;;;;7.21;100.00;98861.41;5074575;28;20402;-61
2022/01/30 01:06:57;;;;;;;4.00;2.13;;;;;;;7.25;100.00;98868.84;5074594;28;20028;-61
2022/01/30 01:09:29;;;;;;;3.70;2.00;;;;;;;7.19;100.00;98879.34;5074429;28;20036;-61
2022/01/30 01:25:22;;;;;;;3.13;1.73;;;;;;;7.06;100.00;98847.25;5074255;28;20268;-61
2022/01/30 01:27:48;;;;;;;2.83;1.60;;;;;;;6.97;100.00;98856.31;5074286;28;20032;-60
2022/01/30 01:30:13;;;;;;;3.50;2.03;;;;;;;7.03;100.00;98860.94;5074184;28;20150;-61
2022/01/30 01:32:39;;;;;;;3.10;1.67;;;;;;;6.99;100.00;98839.19;5073996;28;20064;-61
2022/01/30 01:35:05;;;;;;;4.60;2.03;;;;;;;6.89;100.00;98826.19;5073925;28;20179;-61
2022/01/30 01:37:31;;;;;;;5.00;1.80;;;;;;;7.00;100.00;98850.66;5074341;28;20032;-60
2022/01/30 01:39:56;;;;;;;3.23;1.90;;;;;;;6.96;100.00;98841.38;5072744;28;20631;-61
2022/01/30 01:42:25;;;;;;;2.90;1.70;;;;;;;6.98;100.00;98842.88;5073829;28;20389;-60
2022/01/30 01:44:54;;;;;;;3.53;1.90;;;;;;;6.96;100.00;98846.69;5073780;28;20031;-61
2022/01/30 01:47:22;;;;;;;3.30;1.80;;;;;;;7.03;100.00;98837.03;5073866;28;20322;-61
2022/01/30 01:49:50;;;;;;;3.30;1.80;;;;;;;7.00;100.00;98840.84;5073681;28;20268;-63
2022/01/30 01:54:45;;;;;;;2.63;1.47;;;;;;;7.00;100.00;98824.09;5073831;28;20289;-61
2022/01/30 01:57:10;;;;;;;2.60;1.60;;;;;;;6.92;100.00;98830.31;5073783;28;20273;-61
2022/01/30 01:59:36;;;;;;;2.87;1.70;;;;;;;6.89;100.00;98830.66;5073953;28;20879;-61
2022/01/30 02:02:03;;;;;;;2.43;1.50;;;;;;;6.90;100.00;98821.69;5073891;28;20109;-61
2022/01/30 02:04:29;;;;;;;2.97;1.80;;;;;;;6.94;100.00;98814.16;5073373;28;20102;-61
2022/01/30 02:07:14;;;;;;;3.00;1.70;;;;;;;6.96;100.00;98820.97;5073815;28;20395;-61
2022/01/30 02:09:41;;;;;;;3.27;1.70;;;;;;;7.00;100.00;98832.06;5073730;28;20040;-61
2022/01/30 02:12:15;;;;;;;3.30;1.70;;;;;;;7.00;100.00;98811.63;5073629;28;20635;-61
2022/01/30 02:28:09;;;;;;;3.03;1.60;;;;;;;7.15;100.00;98775.25;5073075;28;20615;-60
2022/01/30 02:30:39;;;;;;;3.07;1.60;;;;;;;7.21;100.00;98773.72;5073032;28;20326;-60
2022/01/30 02:33:05;;;;;;;3.10;1.50;;;;;;;7.19;100.00;98771.22;5073007;28;20263;-61
2022/01/30 02:35:31;;;;;;;4.60;1.90;;;;;;;7.17;100.00;98759.13;5072796;28;20642;-61
2022/01/30 02:37:59;;;;;;;3.47;1.50;;;;;;;7.10;100.00;98759.06;5072440;28;20028;-61
2022/01/30 02:40:25;;;;;;;3.13;1.50;;;;;;;7.07;100.00;98770.03;5072807;28;20450;-61
2022/01/30 02:42:53;;;;;;;2.27;1.20;;;;;;;7.01;100.00;98769.94;5072816;28;20693;-61
2022/01/30 02:45:21;;;;;;;2.63;1.57;;;;;;;6.99;100.00;98771.97;5072662;28;20303;-61
2022/01/30 02:50:35;;;;;;;2.60;1.70;;;;;;;6.78;100.00;98780.66;5072728;28;20261;-60
2022/01/30 02:53:04;;;;;;;2.67;1.70;;;;;;;6.75;100.00;98773.84;5072783;28;20623;-60
2022/01/30 02:55:30;;;;;;;2.83;1.50;;;;;;;6.80;100.00;98771.50;5072329;28;20288;-60
2022/01/30 02:57:56;;;;;;;2.67;1.47;;;;;;;6.80;100.00;98765.38;5072517;28;20265;-60
2022/01/30 03:00:22;;;;;;;2.83;1.60;;;;;;;6.85;100.00;98771.75;5072430;28;20052;-60
2022/01/30 03:02:48;;;;;;;2.33;1.37;;;;;;;6.96;100.00;98759.03;5072284;28;20103;-60
2022/01/30 03:05:13;;;;;;;2.13;1.40;;;;;;;7.03;100.00;98770.59;5072328;28;20384;-60
2022/01/30 03:07:39;;;;;;;1.90;1.30;;;;;;;7.16;100.00;98784.88;5072310;28;20358;-60
2022/01/30 03:10:05;;;;;;;2.20;1.50;;;;;;;7.20;100.00;98770.22;5072358;28;20107;-61
2022/01/30 03:12:30;;;;;;;4.07;1.10;;;;;;;7.25;100.00;98772.34;5072410;28;20532;-61
2022/01/30 03:14:56;;;;;;;3.30;1.40;;;;;;;7.25;100.00;98791.78;5071198;28;20321;-60
2022/01/30 03:17:21;;;;;;;2.23;1.40;;;;;;;7.28;100.00;98790.56;5072284;28;20021;-60
2022/01/30 03:19:47;;;;;;;1.77;1.10;;;;;;;7.34;100.00;98773.06;5072148;28;20078;-60
2022/01/30 03:22:13;;;;;;;1.23;1.10;;;;;;;7.37;100.00;98791.31;5072138;28;20028;-60
2022/01/30 03:24:38;;;;;;;1.60;1.10;;;;;;;7.29;100.00;98794.88;5072055;28;20477;-61
2022/01/30 03:27:08;;;;;;;1.43;1.00;;;;;;;7.15;100.00;98798.38;5071938;28;20052;-61
2022/01/30 03:29:35;;;;;;;2.23;1.43;;;;;;;7.06;100.00;98775.53;5071858;28;20059;-61
2022/01/30 03:32:00;;;;;;;2.57;1.40;;;;;;;7.05;100.00;98760.59;5071836;28;20270;-60
2022/01/30 03:34:26;;;;;;;2.03;1.17;;;;;;;7.08;100.00;98779.66;5071935;28;20277;-61
2022/01/30 03:36:53;;;;;;;3.27;1.20;;;;;;;7.12;100.00;98780.13;5071716;28;20111;-60
2022/01/30 03:39:19;;;;;;;2.13;1.27;;;;;;;7.03;100.00;98779.41;5071956;28;20032;-60
2022/01/30 03:41:44;;;;;;;2.07;1.30;;;;;;;6.96;100.00;98767.00;5071726;28;20265;-60
2022/01/30 03:44:10;;;;;;;2.33;1.20;;;;;;;6.90;100.00;98773.88;5071881;28;20025;-60
2022/01/30 03:46:35;;;;;;;2.33;1.30;;;;;;;6.77;100.00;98801.06;5071581;28;20539;-60
2022/01/30 03:49:01;;;;;;;2.90;1.20;;;;;;;6.75;100.00;98773.03;5071553;28;20064;-60
2022/01/30 03:51:26;;;;;;;1.70;1.10;;;;;;;6.71;100.00;98766.44;5070000;28;20500;-60
2022/01/30 03:53:52;;;;;;;2.47;1.70;;;;;;;6.63;100.00;98770.00;5071449;28;20060;-60
2022/01/30 03:56:17;;;;;;;2.50;1.30;;;;;;;6.48;100.00;98777.91;5071699;28;20025;-60
2022/01/30 03:58:43;;;;;;;2.17;1.40;;;;;;;6.50;100.00;98791.84;5071375;28;20099;-60
2022/01/30 04:01:09;;;;;;;2.70;1.30;;;;;;;6.58;100.00;98792.78;5071424;28;20637;-60
2022/01/30 04:03:36;;;;;;;2.23;1.40;;;;;;;6.43;100.00;98796.22;5071325;28;20107;-60
2022/01/30 04:06:03;;;;;;;1.83;1.20;;;;;;;6.45;100.00;98811.97;5071334;28;20082;-60
2022/01/30 04:08:29;;;;;;;3.13;1.50;;;;;;;6.35;100.00;98804.22;5071343;28;20262;-59
2022/01/30 04:10:55;;;;;;;2.20;1.60;;;;;;;6.28;100.00;98821.03;5071290;28;20314;-60
2022/01/30 04:13:21;;;;;;;1.90;1.40;;;;;;;6.29;100.00;98828.00;5071105;28;20127;-59
2022/01/30 04:15:46;;;;;;;2.50;1.50;;;;;;;6.25;100.00;98795.69;5071164;28;20039;-59
2022/01/30 04:18:12;;;;;;;2.60;1.47;;;;;;;6.33;100.00;98802.78;5071224;28;20382;-59
2022/01/30 04:20:38;;;;;;;2.57;1.50;;;;;;;6.38;100.00;98801.22;5071413;28;20040;-59
2022/01/30 04:23:04;;;;;;;2.43;1.40;;;;;;;6.49;100.00;98808.75;5071047;28;20040;-59
2022/01/30 04:25:30;;;;;;;3.30;1.70;;;;;;;6.49;100.00;98806.09;5071068;28;20253;-59
2022/01/30 04:27:55;;;;;;;5.60;1.90;;;;;;;6.46;100.00;98829.56;5071192;28;20021;-59
2022/01/30 04:30:21;;;;;;;4.60;2.10;;;;;;;6.65;100.00;98791.06;5071208;28;20504;-59
2022/01/30 04:32:47;;;;;;;4.83;2.17;;;;;;;6.69;100.00;98800.31;5071023;28;20040;-59
2022/01/30 04:35:21;;;;;;;5.03;1.87;;;;;;;6.76;100.00;98825.16;5071045;28;20028;-60
2022/01/30 04:54:20;;;;;;;7.67;2.90;;;;;;;6.43;100.00;98798.88;5070934;28;20563;-59
2022/01/30 05:09:19;;;;;;;6.80;2.60;;;;;;;6.42;100.00;98822.94;5070749;28;20265;-60
2022/01/30 05:11:45;;;;;;;5.67;2.57;;;;;;;6.23;100.00;98824.22;5070895;28;20269;-60
2022/01/30 05:14:13;;;;;;;5.83;2.60;;;;;;;6.34;100.00;98823.00;5070471;28;20544;-60
2022/01/30 05:16:39;;;;;;;6.33;2.30;;;;;;;6.31;100.00;98826.84;5070623;28;20039;-60
2022/01/30 05:19:05;;;;;;;7.43;2.70;;;;;;;6.38;100.00;98830.41;5070923;28;20261;-60
2022/01/30 05:21:31;;;;;;;6.40;2.50;;;;;;;6.43;100.00;98817.44;5070549;28;20028;-60
2022/01/30 05:23:57;;;;;;;8.50;2.40;;;;;;;6.55;100.00;98796.63;5070703;28;20043;-60
2022/01/30 05:26:26;;;;;;;9.80;2.60;;;;;;;6.34;100.00;98810.56;5070570;28;20025;-60
2022/01/30 05:28:52;;;;;;;6.37;2.60;;;;;;;6.38;100.00;98795.09;5070488;28;20265;-60
2022/01/30 05:31:18;;;;;;;9.20;2.70;;;;;;;6.41;100.00;98811.50;5070659;28;20258;-60
2022/01/30 05:33:44;;;;;;;7.47;2.50;;;;;;;6.48;100.00;98822.22;5070549;28;20751;-60
2022/01/30 05:36:10;;;;;;;8.00;2.60;;;;;;;6.37;100.00;98807.53;5070686;28;20024;-61
2022/01/30 05:38:36;;;;;;;8.70;2.50;;;;;;;6.45;100.00;98796.88;5072119;28;20265;-60
2022/01/30 05:41:02;;;;;;;7.33;2.70;;;;;;;6.46;100.00;98795.03;5073826;28;20211;-60
2022/01/30 05:43:31;;;;;;;8.33;2.63;;;;;;;6.54;100.00;98808.25;5074020;28;20285;-60
2022/01/30 05:46:09;;;;;;;7.23;2.73;;;;;;;6.51;100.00;98797.97;5073856;28;20261;-60
2022/01/30 05:48:35;;;;;;;7.07;2.40;;;;;;;6.48;100.00;98785.06;5072764;28;20269;-60
2022/01/30 05:51:01;;;;;;;6.57;2.27;;;;;;;6.50;100.00;98805.09;5073739;28;20272;-60
2022/01/30 05:53:26;;;;;;;5.30;2.00;;;;;;;6.51;100.00;98790.00;5073103;28;20024;-60
2022/01/30 05:55:52;;;;;;;3.97;1.93;;;;;;;6.47;100.00;98784.22;5072040;28;20024;-60
2022/01/30 05:58:17;;;;;;;6.53;2.30;;;;;;;6.49;100.00;98789.34;5073510;28;20028;-60
2022/01/30 06:00:43;;;;;;;6.27;2.20;;;;;;;6.49;100.00;98797.31;5073527;28;20032;-60
2022/01/30 06:03:09;;;;;;;7.80;2.10;;;;;;;6.49;100.00;98776.91;5072352;28;20031;-61
2022/01/30 06:05:34;;;;;;;4.27;2.00;;;;;;;6.46;100.00;98773.81;5073382;28;20020;-61
2022/01/30 06:08:09;;;;;;;4.60;1.87;;;;;;;6.49;100.00;98779.56;5073679;28;20032;-61
2022/01/30 06:10:35;;;;;;;5.40;2.57;;;;;;;6.52;100.00;98784.53;5073758;28;20028;-61
2022/01/30 06:13:01;;;;;;;7.37;2.27;;;;;;;6.53;100.00;98799.44;5073184;28;20842;-61
2022/01/30 06:15:27;;;;;;;6.93;2.63;;;;;;;6.58;100.00;98819.34;5073389;28;20040;-60
2022/01/30 06:17:52;;;;;;;4.87;2.00;;;;;;;6.64;100.00;98800.03;5073362;28;20028;-60
2022/01/30 06:20:18;;;;;;;7.17;2.40;;;;;;;6.64;100.00;98816.78;5073315;28;20630;-61
2022/01/30 06:22:44;;;;;;;7.23;2.33;;;;;;;6.64;100.00;98834.53;5073146;28;20028;-61
2022/01/30 06:25:13;;;;;;;7.43;2.30;;;;;;;6.17;100.00;98832.88;5073175;28;20039;-60
2022/01/30 06:27:39;;;;;;;5.30;2.00;;;;;;;5.83;100.00;98847.31;5073012;28;20678;-61
2022/01/30 06:30:06;;;;;;;6.37;2.37;;;;;;;5.86;100.00;98850.63;5073176;28;20269;-61
2022/01/30 06:32:31;;;;;;;6.33;2.10;;;;;;;5.75;100.00;98834.09;5072870;28;20029;-60
2022/01/30 06:34:57;;;;;;;5.27;2.17;;;;;;;5.72;100.00;98844.22;5072962;28;20284;-60
2022/01/30 06:37:22;;;;;;;3.97;1.93;;;;;;;5.75;100.00;98859.78;5073009;28;20024;-60
2022/01/30 06:39:49;;;;;;;7.07;2.13;;;;;;;5.73;100.00;98864.44;5072883;28;20020;-61
2022/01/30 06:42:14;;;;;;;3.73;1.93;;;;;;;5.81;100.00;98867.88;5072800;28;20032;-60
2022/01/30 06:44:42;;;;;;;6.60;2.43;;;;;;;5.82;100.00;98885.44;5072790;28;20271;-61
2022/01/30 06:47:08;;;;;;;6.73;2.50;;;;;;;5.92;100.00;98852.59;5072962;28;20032;-61
2022/01/30 06:49:34;;;;;;;5.83;2.63;;;;;;;5.92;100.00;98869.34;5072484;28;20265;-60
2022/01/30 06:51:59;;;;;;;8.73;3.00;;;;;;;5.92;100.00;98868.50;5072647;28;20082;-60
2022/01/30 06:54:25;;;;;;;8.17;2.77;;;;;;;6.00;100.00;98860.53;5072790;28;20113;-61
2022/01/30 06:56:51;;;;;;;5.83;2.40;;;;;;;5.92;100.00;98881.75;5072407;28;20040;-61
2022/01/30 06:59:16;;;;;;;5.53;2.80;;;;;;;6.01;100.00;98899.28;5072602;28;20173;-61
2022/01/30 07:01:42;;;;;;;5.37;2.47;;;;;;;6.04;100.00;98867.94;5072654;28;20032;-61
2022/01/30 07:04:07;;;;;;;7.50;2.90;;;;;;;5.98;100.00;98875.78;5072501;28;20070;-61
2022/01/30 07:06:33;;;;;;;9.30;2.90;;;;;;;6.01;100.00;98881.53;5072229;28;20504;-61
2022/01/30 07:08:58;;;;;;;7.40;2.93;;;;;;;5.89;100.00;98868.84;5072343;28;20028;-61
2022/01/30 07:11:24;;;;;;;8.47;3.20;;;;;;;5.92;100.00;98895.03;5072213;28;20495;-61
2022/01/30 07:13:49;;;;;;;7.37;2.87;;;;;;;5.95;100.00;98874.31;5072030;28;20052;-60
2022/01/30 07:16:15;;;;;;;9.23;3.27;;;;;;;5.95;100.00;98892.03;5072164;28;20078;-60
2022/01/30 07:18:42;;;;;;;8.63;2.90;;;;;;;5.96;100.00;98891.88;5070915;28;20028;-60
2022/01/30 07:21:09;;;;;;;8.87;3.00;;;;;;;6.05;100.00;98895.28;5072151;28;20135;-60
2022/01/30 07:23:36;;;;;;;7.93;3.00;;;;;;;6.08;100.00;98893.13;5071990;28;20349;-60
2022/01/30 07:26:02;;;;;;;5.80;2.80;;;;;;;6.08;100.00;98913.53;5072035;28;20293;-60
2022/01/30 07:28:28;;;;;;;8.17;2.63;;;;;;;6.14;100.00;98905.69;5072249;28;20257;-61
2022/01/30 07:30:55;;;;;;;8.10;2.80;;;;;;;6.20;100.00;98913.97;5071971;28;20273;-61
2022/01/30 07:33:20;;;;;;;12.30;3.30;;;;;;;6.26;100.00;98898.16;5072031;28;20028;-60
2022/01/30 07:35:46;;;;;;;8.13;2.80;;;;;;;6.17;100.00;98901.88;5071853;28;20273;-60
2022/01/30 07:38:12;;;;;;;8.70;3.10;;;;;;;6.20;100.00;98906.84;5054104;28;20036;-60
2022/01/30 07:40:38;;;;;;;7.53;2.60;;;;;;;6.30;100.00;98920.72;5071812;28;20032;-60
2022/01/30 07:43:04;;;;;;;4.80;2.33;;;;;;;6.16;100.00;98922.25;5071712;28;20653;-59
2022/01/30 07:45:29;;;;;;;7.10;2.60;;;;;;;6.21;100.00;98926.22;5069596;28;20482;-60
2022/01/30 07:47:55;;;;;;;7.20;2.90;;;;;;;6.15;100.00;98923.25;5071620;28;20032;-59
2022/01/30 07:50:20;;;;;;;9.47;3.00;;;;;;;6.27;100.00;98926.34;5071620;28;20097;-59
2022/01/30 07:52:46;;;;;;;11.47;3.37;;;;;;;6.24;100.00;98923.22;5071446;28;20039;-60
2022/01/30 07:55:11;;;;;;;5.27;2.50;;;;;;;6.37;100.00;98932.25;5070224;28;20032;-61
2022/01/30 07:57:37;;;;;;;5.93;2.43;;;;;;;6.34;100.00;98929.97;5071495;28;20028;-63
2022/01/30 08:00:07;;;;;;;9.10;2.67;;;;;;;7.03;100.00;98924.69;5070127;28;20024;-61
2022/01/30 08:02:32;;;;;;;9.40;2.60;;;;;;;7.04;100.00;98918.38;5071661;28;20585;-63
2022/01/30 08:04:58;;;;;;;8.13;2.93;;;;;;;6.87;100.00;98928.28;5070242;28;20348;-61
2022/01/30 08:07:26;;;;;;;7.97;2.50;;;;;;;6.68;100.00;98940.22;5071401;28;20032;-61
2022/01/30 08:09:51;;;;;;;8.20;2.40;;;;;;;6.56;100.00;98938.16;5071330;28;20141;-60
2022/01/30 08:12:19;;;;;;;8.07;3.17;;;;;;;6.46;100.00;98931.22;5071201;28;20608;-60
2022/01/30 08:14:45;;;;;;;10.67;3.37;;;;;;;6.70;100.00;98932.88;5070917;28;20071;-61
2022/01/30 08:17:17;;;;;;;8.63;2.83;;;;;;;6.84;100.00;98941.91;5071243;28;20750;-60
2022/01/30 08:19:45;;;;;;;7.85;2.70;;;;;;;6.74;100.00;98936.03;5051196;28;20021;-61
2022/01/30 08:22:11;;;;;;;11.23;2.97;;;;;;;6.96;100.00;98945.81;5051089;28;20025;-60
2022/01/30 08:24:36;;;;;;;7.83;2.40;;;;;;;6.62;100.00;98954.19;5051174;28;20266;-61
2022/01/30 08:27:02;;;;;;;12.97;2.90;;;;;;;6.58;100.00;98957.38;5051108;28;20078;-61
2022/01/30 08:29:27;;;;;;;8.57;2.67;;;;;;;6.42;100.00;98956.47;5051059;28;20039;-61
2022/01/30 08:31:55;;;;;;;8.73;3.13;;;;;;;6.70;100.00;98991.28;5050762;28;20041;-60
2022/01/30 08:34:20;;;;;;;7.93;2.50;;;;;;;7.01;100.00;98980.66;5051061;28;20029;-61
2022/01/30 08:36:46;;;;;;;6.77;2.40;;;;;;;6.97;100.00;98975.84;5050667;28;20319;-62
2022/01/30 08:39:11;;;;;;;8.30;2.43;;;;;;;7.59;100.00;99019.88;5049787;28;20075;-60
2022/01/30 16:31:59;;;;;;;10.17;2.50;;;;;;;4.31;89.16;99244.19;5109010;27;20396;-62
2022/01/30 16:34:24;;;;;;;9.13;3.07;;;;;;;4.25;90.19;99245.66;5108959;28;20272;-62
2022/01/30 16:36:50;;;;;;;7.83;2.80;;;;;;;4.28;90.88;99231.28;5109036;28;20032;-61
2022/01/30 16:39:15;;;;;;;8.80;2.37;;;;;;;4.26;90.84;99242.03;5108965;28;20039;-61
2022/01/30 16:41:47;;;;;;;9.37;2.67;;;;;;;4.39;89.15;99249.53;5108829;28;20024;-62
2022/01/30 16:44:15;;;;;;;9.50;2.43;;;;;;;4.54;87.47;99249.81;5108803;28;20024;-61
2022/01/30 16:49:14;;;;;;;10.20;3.10;;;;;;;4.51;88.69;99248.31;5108911;28;20267;-61
2022/01/30 16:51:47;;;;;;;12.27;2.40;;;;;;;4.46;89.50;99261.19;5108816;28;20026;-61
2022/01/30 16:54:13;;;;;;;10.97;2.40;;;;;;;4.40;90.79;99251.22;5090509;28;20261;-61
2022/01/30 16:56:38;;;;;;;8.70;2.60;;;;;;;4.39;90.87;99252.19;5108489;28;20298;-60
2022/01/30 16:59:05;;;;;;;9.40;2.70;;;;;;;4.59;90.30;99256.31;5108578;28;20026;-60
2022/01/30 17:01:31;;;;;;;7.40;2.47;;;;;;;4.48;91.28;99261.03;5108527;28;20023;-60
2022/01/30 17:03:56;;;;;;;7.10;2.30;;;;;;;4.56;90.73;99264.56;5108471;28;20341;-61
2022/01/30 17:06:22;;;;;;;14.80;2.97;;;;;;;4.43;92.52;99255.38;5108589;28;20055;-60
2022/01/30 17:08:54;;;;;;;11.10;3.60;;;;;;;4.45;92.04;99248.94;5108395;28;20441;-60
2022/01/30 17:11:22;;;;;;;12.40;2.87;;;;;;;4.50;91.52;99259.88;5108023;28;20031;-60
2022/01/30 17:13:48;;;;;;;10.00;2.77;;;;;;;4.42;93.68;99269.56;5107681;28;20629;-60
2022/01/30 17:16:18;;;;;;;8.37;2.60;;;;;;;4.39;93.49;99262.78;5108338;28;20272;-60
2022/01/30 17:18:44;;;;;;;10.37;2.90;;;;;;;4.48;92.55;99269.81;5108154;28;20263;-60
2022/01/30 17:21:09;;;;;;;10.73;2.67;;;;;;;4.31;94.93;99289.19;5108160;28;20268;-60
2022/01/30 17:23:35;;;;;;;8.67;2.70;;;;;;;4.34;94.56;99268.53;5108379;28;20465;-60
2022/01/30 17:26:01;;;;;;;10.53;3.00;;;;;;;4.53;92.72;99267.50;5106846;28;20036;-60
2022/01/30 17:28:27;;;;;;;8.77;2.70;;;;;;;4.38;93.92;99296.34;5106848;28;20023;-60
2022/01/30 17:30:54;;;;;;;11.17;2.53;;;;;;;4.38;94.14;99293.69;5107880;28;20119;-60
2022/01/30 17:33:21;;;;;;;9.13;2.77;;;;;;;4.35;94.92;99294.03;5108207;28;20024;-60
2022/01/30 17:35:47;;;;;;;12.50;3.20;;;;;;;4.35;94.20;99286.09;5108163;28;20256;-60
2022/01/30 17:38:13;;;;;;;10.23;2.63;;;;;;;4.32;95.11;99288.19;5106770;28;20755;-60
2022/01/30 17:40:39;;;;;;;5.73;2.40;;;;;;;4.35;93.89;99291.38;5108068;28;20412;-61
2022/01/30 17:43:05;;;;;;;7.57;2.57;;;;;;;4.33;94.48;99295.97;5092205;28;20519;-60
2022/01/30 17:45:31;;;;;;;7.73;2.77;;;;;;;4.27;95.16;99301.03;5089669;28;20272;-61
2022/01/30 17:47:58;;;;;;;12.57;3.33;;;;;;;4.18;97.32;99305.44;5088433;28;20264;-61
2022/01/30 17:50:24;;;;;;;11.57;3.00;;;;;;;4.15;96.77;99305.75;5084650;28;20028;-60
2022/01/30 17:52:50;;;;;;;10.40;2.50;;;;;;;4.34;95.20;99323.28;5093113;28;20602;-60
2022/01/30 17:55:16;;;;;;;8.30;2.60;;;;;;;4.21;96.61;99320.16;5084865;28;20028;-61
2022/01/30 17:57:43;;;;;;;8.50;2.33;;;;;;;4.09;97.75;99308.16;5082231;28;20264;-63
2022/01/30 18:00:12;;;;;;;7.73;2.40;;;;;;;4.42;94.66;99323.31;5083197;28;20119;-60
2022/01/30 18:02:39;;;;;;;10.80;3.00;;;;;;;4.35;95.17;99328.41;5084067;28;20267;-60
2022/01/30 18:05:05;;;;;;;15.03;4.57;;;;;;;4.29;97.12;99329.00;5084379;28;20261;-63
2022/01/30 18:07:32;;;;;;;7.77;2.97;;;;;;;4.23;96.89;99316.41;5090118;28;20269;-62
2022/01/30 18:09:58;;;;;;;11.57;2.70;;;;;;;4.17;97.27;99318.78;5082767;28;20261;-63
2022/01/30 18:12:23;;;;;;;9.03;2.70;;;;;;;4.23;97.22;99320.84;5094061;28;20257;-62
2022/01/30 18:14:50;;;;;;;10.13;2.83;;;;;;;4.19;96.62;99311.56;5092636;28;20055;-62
2022/01/30 18:17:15;;;;;;;11.07;2.50;;;;;;;4.23;96.75;99310.28;5092463;28;20284;-62
2022/01/30 18:19:41;;;;;;;10.10;2.73;;;;;;;4.07;98.55;99310.13;5092721;28;20261;-65
2022/01/30 18:22:07;;;;;;;7.70;2.40;;;;;;;4.04;98.91;99305.16;5093911;28;20385;-63
2022/01/30 18:24:33;;;;;;;11.70;2.93;;;;;;;4.05;98.95;99307.63;5093463;28;20028;-63
2022/01/30 18:26:59;;;;;;;7.83;2.30;;;;;;;4.18;97.12;99310.72;5093464;28;20589;-62
2022/01/30 18:29:25;;;;;;;12.57;4.70;;;;;;;4.13;97.54;99302.44;5093300;28;20343;-63
2022/01/30 18:31:53;;;;;;;5.70;2.13;;;;;;;5.45;100.00;99296.81;5093246;28;20292;-60
2022/01/30 18:34:23;;;;;;;8.57;2.40;;;;;;;4.85;99.19;99295.16;5093312;28;20035;-63
2022/01/30 18:36:56;;;;;;;10.80;2.70;;;;;;;4.25;96.58;99290.63;5093781;28;20253;-62
2022/01/30 18:39:41;;;;;;;11.30;2.53;;;;;;;4.29;95.80;99291.97;5093185;28;20283;-61
2022/01/30 18:42:08;;;;;;;8.67;2.40;;;;;;;4.18;97.17;99297.50;5093053;28;20036;-61
2022/01/30 18:44:33;;;;;;;12.20;3.13;;;;;;;4.25;96.08;99301.22;5092999;28;20279;-62
2022/01/30 18:46:59;;;;;;;11.17;3.20;;;;;;;4.21;95.95;99289.25;5093351;28;20613;-61
2022/01/30 18:49:24;;;;;;;11.43;2.33;;;;;;;4.21;96.10;99277.84;5093060;28;20028;-61
2022/01/30 18:51:50;;;;;;;14.20;3.27;;;;;;;4.24;95.55;99296.06;5093155;28;20426;-61
2022/01/30 18:54:17;;;;;;;11.77;2.47;;;;;;;4.21;95.25;99289.25;5091864;28;20074;-62
2022/01/30 18:56:45;;;;;;;8.90;2.40;;;;;;;4.12;96.27;99287.53;5092851;28;20496;-61
2022/01/30 18:59:12;;;;;;;8.57;2.30;;;;;;;4.12;96.48;99292.00;5092876;28;21068;-65
2022/01/30 19:01:38;;;;;;;9.20;2.30;;;;;;;4.20;94.53;99284.94;5091438;28;20288;-62
2022/01/30 19:04:03;;;;;;;9.90;2.93;;;;;;;4.10;96.39;99286.84;5092834;28;20269;-62
2022/01/30 19:06:36;;;;;;;9.03;2.70;;;;;;;4.04;96.77;99279.50;5092609;28;20275;-62
2022/01/30 19:09:04;;;;;;;11.67;3.00;;;;;;;4.11;95.52;99283.22;5092605;28;20030;-62
2022/01/30 19:11:29;;;;;;;11.03;2.87;;;;;;;4.05;95.67;99278.53;5092573;28;20260;-61
2022/01/30 19:13:55;;;;;;;9.83;2.67;;;;;;;3.97;95.81;99270.53;5084377;28;20291;-63
2022/01/30 19:16:21;;;;;;;8.67;2.90;;;;;;;3.91;96.72;99265.88;5063564;28;20481;-63
2022/01/30 19:18:46;;;;;;;11.40;2.50;;;;;;;3.97;95.11;99263.44;5078888;28;20489;-64
2022/01/30 19:21:12;;;;;;;10.57;3.00;;;;;;;4.05;95.99;99280.34;5082039;28;20672;-64
2022/01/30 19:23:38;;;;;;;11.13;2.93;;;;;;;3.97;96.77;99281.09;5080977;28;20032;-65
2022/01/30 19:26:03;;;;;;;7.90;2.73;;;;;;;3.92;96.53;99281.53;5080447;28;20032;-65
2022/01/30 19:28:29;;;;;;;10.07;2.80;;;;;;;3.90;96.31;99280.91;5080862;28;20031;-65
2022/01/30 19:30:57;;;;;;;11.00;3.30;;;;;;;3.72;99.74;99281.84;5080561;28;20568;-63
2022/01/30 19:33:23;;;;;;;11.57;2.47;;;;;;;3.74;98.46;99282.53;5080258;28;20028;-64
2022/01/30 19:35:48;;;;;;;8.67;2.67;;;;;;;3.60;100.00;99279.41;5081798;28;20322;-64
2022/01/30 19:38:14;;;;;;;10.53;2.77;;;;;;;3.61;99.92;99286.34;5080175;28;20020;-64
2022/01/30 19:40:40;;;;;;;11.53;2.70;;;;;;;3.71;99.00;99281.00;5085392;28;20435;-63
2022/01/30 19:43:06;;;;;;;9.83;3.10;;;;;;;3.63;100.00;99279.13;5087255;28;20100;-64
2022/01/30 19:45:36;;;;;;;8.43;2.83;;;;;;;3.57;100.00;99269.16;5091902;28;20268;-63
2022/01/30 19:48:04;;;;;;;15.20;2.60;;;;;;;3.66;100.00;99263.94;5091886;28;20035;-64
2022/01/30 19:50:30;;;;;;;12.63;2.80;;;;;;;3.61;100.00;99267.88;5091784;28;20269;-63
2022/01/30 19:52:58;;;;;;;11.17;2.67;;;;;;;3.63;100.00;99271.19;5091839;28;20272;-63
2022/01/30 19:55:24;;;;;;;13.67;3.37;;;;;;;3.52;100.00;99274.03;5088542;28;20036;-63
2022/01/30 19:57:50;;;;;;;10.97;2.63;;;;;;;3.57;100.00;99273.63;5079984;28;20276;-63
2022/01/30 20:00:17;;;;;;;11.33;3.57;;;;;;;3.54;100.00;99274.72;5077542;28;20303;-64
2022/01/30 20:02:44;;;;;;;12.17;3.87;;;;;;;3.67;99.83;99284.94;5091544;28;20396;-64
2022/01/30 20:05:10;;;;;;;9.57;2.70;;;;;;;3.79;98.88;99277.63;5089781;28;20326;-62
2022/01/30 20:07:36;;;;;;;10.43;2.57;;;;;;;3.55;100.00;99270.28;5091313;28;20292;-62
2022/01/30 20:10:03;;;;;;;10.77;3.17;;;;;;;3.60;100.00;99289.16;5091399;28;20036;-62
2022/01/30 20:12:29;;;;;;;11.53;2.70;;;;;;;3.67;100.00;99260.34;5090232;28;20272;-61
2022/01/30 20:14:55;;;;;;;9.37;2.93;;;;;;;3.74;99.73;99262.22;5091446;28;20595;-62
2022/01/30 20:17:20;;;;;;;12.20;2.87;;;;;;;3.74;98.69;99258.75;5090283;28;20031;-62
2022/01/30 20:19:46;;;;;;;14.00;2.73;;;;;;;3.60;99.93;99268.84;5091227;28;20439;-61
2022/01/30 20:22:11;;;;;;;8.47;2.57;;;;;;;3.47;100.00;99264.88;5091371;28;20202;-62
2022/01/30 20:24:37;;;;;;;8.07;2.90;;;;;;;3.44;100.00;99252.81;5090884;28;20028;-62
2022/01/30 20:27:03;;;;;;;10.00;2.60;;;;;;;3.31;100.00;99244.41;5091011;28;20051;-62